createdAt,value
2019-03-04T00:02:02.167Z,12.10
2019-03-04T00:04:31.089Z,12.10
2019-03-04T00:06:59.650Z,12.20
2019-03-04T00:09:28.696Z,12.10
2019-03-04T00:11:57.984Z,12.10
2019-03-04T00:14:26.781Z,12.10
2019-03-04T00:16:55.461Z,12.10
2019-03-04T00:19:24.497Z,12.10
2019-03-04T00:21:53.546Z,12.10
2019-03-04T00:24:22.223Z,12.00
2019-03-04T00:26:51.027Z,12.00
2019-03-04T00:29:19.466Z,12.00
2019-03-04T00:31:48.148Z,11.90
2019-03-04T00:34:16.970Z,11.90
2019-03-04T00:36:45.764Z,11.80
2019-03-04T00:39:14.669Z,11.80
2019-03-04T00:41:43.593Z,11.80
2019-03-04T00:44:12.531Z,11.80
2019-03-04T00:46:41.076Z,11.80
2019-03-04T00:49:10.125Z,11.70
2019-03-04T00:51:38.928Z,11.70
2019-03-04T00:54:07.603Z,11.70
2019-03-04T00:56:36.290Z,11.60
2019-03-04T00:59:04.966Z,11.70
2019-03-04T01:01:33.882Z,11.70
2019-03-04T01:04:02.694Z,11.70
2019-03-04T01:06:31.500Z,11.70
2019-03-04T01:08:59.927Z,11.60
2019-03-04T01:11:28.491Z,11.70
2019-03-04T01:13:57.171Z,11.70
2019-03-04T01:16:25.853Z,11.60
2019-03-04T01:18:54.655Z,11.60
2019-03-04T01:21:23.338Z,11.60
2019-03-04T01:23:51.778Z,11.60
2019-03-04T01:26:20.342Z,11.70
2019-03-04T01:28:48.780Z,11.70
2019-03-04T01:31:17.588Z,11.70
2019-03-04T01:33:46.623Z,11.70
2019-03-04T01:36:15.718Z,11.70
2019-03-04T01:38:44.349Z,11.70
2019-03-04T01:41:13.190Z,11.70
2019-03-04T01:43:41.714Z,11.70
2019-03-04T01:46:10.275Z,11.60
2019-03-04T01:48:39.193Z,11.60
2019-03-04T01:51:07.998Z,11.60
2019-03-04T01:53:36.440Z,11.60
2019-03-04T01:56:05.489Z,11.60
2019-03-04T01:58:34.163Z,11.60
2019-03-04T02:01:02.602Z,11.50
2019-03-04T02:03:31.283Z,11.60
2019-03-04T02:05:59.964Z,11.50
2019-03-04T02:08:28.526Z,11.50
2019-03-04T02:10:57.576Z,11.50
2019-03-04T02:13:26.251Z,11.60
2019-03-04T02:15:54.931Z,11.60
2019-03-04T02:18:23.851Z,11.50
2019-03-04T02:20:52.662Z,11.50
2019-03-04T02:23:21.818Z,11.50
2019-03-04T02:26:02.989Z,11.50
2019-03-04T02:28:31.907Z,11.50
2019-03-04T02:31:00.586Z,11.60
2019-03-04T02:33:29.266Z,11.60
2019-03-04T02:35:58.185Z,11.50
2019-03-04T02:38:27.108Z,11.50
2019-03-04T02:40:56.029Z,11.50
2019-03-04T02:43:24.477Z,11.50
2019-03-04T02:45:53.158Z,11.40
2019-03-04T02:48:22.195Z,11.40
2019-03-04T02:50:50.874Z,11.50
2019-03-04T02:53:19.933Z,11.50
2019-03-04T02:55:48.716Z,11.50
2019-03-04T02:58:17.524Z,11.40
2019-03-04T03:00:46.080Z,11.30
2019-03-04T03:03:14.648Z,11.30
2019-03-04T03:05:43.685Z,11.20
2019-03-04T03:08:12.605Z,11.20
2019-03-04T03:10:41.648Z,11.10
2019-03-04T03:13:10.577Z,11.00
2019-03-04T03:15:39.377Z,11.00
2019-03-04T03:18:08.178Z,11.00
2019-03-04T03:20:36.980Z,11.00
2019-03-04T03:23:05.655Z,11.00
2019-03-04T03:25:35.534Z,11.00
2019-03-04T03:28:04.339Z,11.00
2019-03-04T03:30:33.021Z,10.90
2019-03-04T03:33:02.423Z,10.80
2019-03-04T03:35:31.224Z,10.80
2019-03-04T03:38:00.272Z,10.90
2019-03-04T03:40:29.192Z,10.90
2019-03-04T03:42:57.872Z,10.90
2019-03-04T03:45:26.555Z,10.90
2019-03-04T03:47:55.479Z,11.00
2019-03-04T03:50:24.638Z,11.00
2019-03-04T03:52:53.557Z,11.10
2019-03-04T03:55:22.239Z,11.20
2019-03-04T03:57:51.050Z,11.30
2019-03-04T04:00:21.044Z,11.30
2019-03-04T04:02:49.724Z,11.30
2019-03-04T04:05:18.644Z,11.50
2019-03-04T04:07:47.086Z,11.50
2019-03-04T04:10:18.055Z,11.60
2019-03-04T04:12:46.735Z,11.60
2019-03-04T04:15:16.498Z,11.70
2019-03-04T04:17:45.545Z,11.70
2019-03-04T04:20:14.469Z,11.70
2019-03-04T04:22:43.380Z,11.80
2019-03-04T04:25:13.018Z,11.80
2019-03-04T04:27:41.936Z,11.70
2019-03-04T04:30:16.259Z,11.80
2019-03-04T04:32:45.303Z,11.70
2019-03-04T04:35:14.107Z,11.70
2019-03-04T04:37:42.909Z,11.70
2019-03-04T04:40:15.306Z,11.70
2019-03-04T04:42:44.111Z,11.70
2019-03-04T04:45:12.798Z,11.60
2019-03-04T04:47:42.924Z,11.60
2019-03-04T04:50:14.709Z,11.60
2019-03-04T04:52:43.515Z,11.60
2019-03-04T04:55:12.081Z,11.60
2019-03-04T04:57:40.876Z,11.70
2019-03-04T05:00:12.435Z,11.70
2019-03-04T05:02:41.006Z,11.70
2019-03-04T05:05:09.922Z,11.70
2019-03-04T05:07:38.599Z,11.70
2019-03-04T05:10:21.444Z,11.60
2019-03-04T05:12:50.124Z,11.60
2019-03-04T05:15:18.813Z,11.60
2019-03-04T05:17:47.609Z,11.50
2019-03-04T05:20:19.649Z,11.50
2019-03-04T05:22:48.214Z,11.60
2019-03-04T05:25:17.016Z,11.60
2019-03-04T05:27:45.938Z,11.70
2019-03-04T05:30:19.899Z,11.70
2019-03-04T05:32:48.939Z,11.70
2019-03-04T05:35:17.869Z,11.80
2019-03-04T05:37:48.224Z,11.80
2019-03-04T05:40:18.945Z,11.80
2019-03-04T05:42:47.985Z,11.90
2019-03-04T05:45:17.516Z,11.90
2019-03-04T05:47:46.468Z,11.90
2019-03-04T05:50:17.027Z,11.90
2019-03-04T05:52:45.832Z,11.90
2019-03-04T05:55:15.352Z,11.90
2019-03-04T05:57:44.039Z,11.80
2019-03-04T06:00:16.314Z,11.80
2019-03-04T06:02:45.126Z,11.90
2019-03-04T06:05:14.998Z,11.90
2019-03-04T06:07:45.127Z,11.80
2019-03-04T06:10:14.165Z,11.90
2019-03-04T06:12:43.082Z,11.90
2019-03-04T06:15:14.649Z,11.90
2019-03-04T06:17:43.822Z,11.90
2019-03-04T06:20:14.538Z,12.00
2019-03-04T06:22:43.449Z,12.00
2019-03-04T06:25:14.893Z,12.00
2019-03-04T06:27:46.214Z,12.00
2019-03-04T06:30:20.194Z,12.00
2019-03-04T06:32:49.698Z,12.00
2019-03-04T06:35:18.498Z,12.10
2019-03-04T06:37:47.299Z,12.10
2019-03-04T06:40:17.189Z,12.10
2019-03-04T06:42:45.635Z,12.10
2019-03-04T06:45:15.987Z,12.20
2019-03-04T06:47:44.666Z,12.10
2019-03-04T06:50:47.072Z,12.10
2019-03-04T06:53:21.872Z,12.10
2019-03-04T06:56:05.557Z,12.10
2019-03-04T06:58:37.472Z,12.00
2019-03-04T07:01:09.513Z,12.00
2019-03-04T07:03:38.194Z,11.90
2019-03-04T07:06:06.642Z,11.60
2019-03-04T07:08:41.198Z,11.30
2019-03-04T07:11:09.759Z,11.10
2019-03-04T07:13:38.449Z,10.90
2019-03-04T07:16:06.884Z,10.90
2019-03-04T07:18:35.446Z,10.90
2019-03-04T07:21:04.129Z,10.90
2019-03-04T07:23:32.568Z,10.90
2019-03-04T07:26:01.014Z,10.90
2019-03-04T07:28:29.695Z,10.90
2019-03-04T07:30:58.372Z,10.80
2019-03-04T07:33:26.818Z,10.80
2019-03-04T07:35:55.497Z,10.70
2019-03-04T07:38:27.310Z,10.80
2019-03-04T07:40:55.857Z,10.90
2019-03-04T07:43:24.541Z,11.00
2019-03-04T07:45:53.103Z,11.00
2019-03-04T07:48:21.542Z,11.00
2019-03-04T07:50:49.998Z,11.00
2019-03-04T07:53:19.208Z,10.90
2019-03-04T07:55:47.953Z,10.80
2019-03-04T07:58:16.387Z,10.80
2019-03-04T08:00:44.839Z,10.70
2019-03-04T08:03:13.517Z,10.80
2019-03-04T08:05:41.956Z,11.00
2019-03-04T08:08:12.795Z,11.40
2019-03-04T08:11:01.309Z,11.80
2019-03-04T08:13:33.325Z,12.30
2019-03-04T08:16:02.003Z,12.80
2019-03-04T08:18:30.685Z,13.20
2019-03-04T08:20:59.364Z,13.30
2019-03-04T08:23:28.049Z,13.70
2019-03-04T08:25:56.730Z,13.80
2019-03-04T08:28:25.533Z,13.90
2019-03-04T08:30:54.212Z,13.90
2019-03-04T08:33:22.903Z,14.10
2019-03-04T08:35:51.585Z,14.40
2019-03-04T08:38:20.255Z,14.60
2019-03-04T08:40:48.947Z,14.90
2019-03-04T08:43:17.621Z,14.90
2019-03-04T08:45:46.303Z,15.20
2019-03-04T08:48:14.985Z,14.80
2019-03-04T08:50:43.667Z,14.20
2019-03-04T08:53:12.349Z,13.90
2019-03-04T08:55:40.788Z,13.90
2019-03-04T08:58:09.471Z,13.70
2019-03-04T09:00:37.913Z,13.40
2019-03-04T09:03:06.351Z,13.10
2019-03-04T09:05:35.035Z,12.90
2019-03-04T09:08:03.716Z,12.70
2019-03-04T09:10:35.040Z,12.50
2019-03-04T09:13:03.602Z,12.30
2019-03-04T09:15:33.360Z,12.20
2019-03-04T09:18:01.925Z,12.10
2019-03-04T09:20:30.602Z,12.00
2019-03-04T09:22:59.285Z,11.90
2019-03-04T09:25:30.915Z,12.00
2019-03-04T09:27:58.927Z,12.10
2019-03-04T09:30:27.373Z,12.00
2019-03-04T09:32:55.825Z,12.00
2019-03-04T09:35:24.610Z,12.10
2019-03-04T09:37:53.175Z,12.10
2019-03-04T09:40:23.299Z,12.20
2019-03-04T09:42:52.220Z,12.10
2019-03-04T09:45:20.900Z,12.10
2019-03-04T09:47:49.590Z,12.10
2019-03-04T09:50:25.464Z,12.10
2019-03-04T09:52:54.626Z,12.10
2019-03-04T09:55:23.908Z,12.00
2019-03-04T09:57:52.356Z,12.00
2019-03-04T10:00:30.027Z,12.00
2019-03-04T10:03:18.510Z,12.00
2019-03-04T10:06:06.632Z,12.00
2019-03-04T10:08:47.319Z,12.00
2019-03-04T10:11:24.754Z,12.00
2019-03-04T10:14:05.682Z,12.00
2019-03-04T10:16:43.006Z,12.00
2019-03-04T10:19:30.768Z,11.90
2019-03-04T10:22:05.326Z,11.90
2019-03-04T10:24:37.484Z,11.80
2019-03-04T10:27:24.164Z,11.70
2019-03-04T10:30:13.736Z,11.60
2019-03-04T10:32:45.532Z,11.60
2019-03-04T10:35:32.332Z,11.60
2019-03-04T10:38:04.135Z,11.70
2019-03-04T10:40:41.815Z,11.80
2019-03-04T10:43:19.986Z,11.90
2019-03-04T10:46:03.539Z,12.00
2019-03-04T10:48:31.977Z,12.10
2019-03-04T10:51:00.664Z,12.10
2019-03-04T10:53:29.350Z,12.10
2019-03-04T10:55:58.023Z,12.10
2019-03-04T10:58:26.724Z,12.70
2019-03-04T11:00:55.161Z,13.80
2019-03-04T11:03:23.591Z,14.80
2019-03-04T11:05:52.277Z,15.70
2019-03-04T11:08:20.843Z,15.70
2019-03-04T11:10:49.518Z,15.70
2019-03-04T11:13:18.202Z,15.00
2019-03-04T11:15:47.003Z,14.10
2019-03-04T11:18:15.437Z,13.10
2019-03-04T11:20:44.122Z,12.30
2019-03-04T11:23:14.929Z,11.90
2019-03-04T11:25:43.168Z,11.80
2019-03-04T11:28:11.855Z,11.80
2019-03-04T11:30:40.422Z,11.70
2019-03-04T11:33:08.854Z,12.80
2019-03-04T11:35:37.287Z,14.30
2019-03-04T11:38:07.174Z,14.40
2019-03-04T11:40:39.216Z,14.70
2019-03-04T11:43:07.899Z,14.50
2019-03-04T11:45:36.576Z,13.80
2019-03-04T11:48:05.255Z,13.50
2019-03-04T11:50:33.937Z,13.30
2019-03-04T11:53:02.741Z,12.90
2019-03-04T11:55:33.106Z,12.30
2019-03-04T11:58:01.667Z,11.90
2019-03-04T12:00:49.906Z,11.60
2019-03-04T12:03:18.593Z,11.50
2019-03-04T12:05:47.148Z,12.30
2019-03-04T12:08:15.712Z,12.30
2019-03-04T12:10:44.395Z,12.60
2019-03-04T12:13:13.074Z,13.30
2019-03-04T12:15:41.514Z,13.30
2019-03-04T12:18:10.200Z,14.10
2019-03-04T12:20:38.879Z,14.30
2019-03-04T12:23:07.562Z,15.30
2019-03-04T12:25:36.000Z,14.80
2019-03-04T12:28:04.685Z,14.10
2019-03-04T12:30:33.485Z,13.70
2019-03-04T12:33:01.935Z,13.50
2019-03-04T12:35:30.369Z,13.60
2019-03-04T12:37:59.050Z,13.50
2019-03-04T12:40:27.497Z,13.40
2019-03-04T12:42:56.173Z,13.20
2019-03-04T12:45:34.085Z,13.10
2019-03-04T12:47:55.337Z,12.80
2019-03-04T12:50:28.221Z,12.50
2019-03-04T12:52:57.866Z,12.50
2019-03-04T12:55:28.102Z,12.40
2019-03-04T12:57:56.783Z,12.30
2019-03-04T13:00:27.628Z,12.40
2019-03-04T13:02:57.848Z,12.20
2019-03-04T13:05:26.669Z,12.50
2019-03-04T13:07:55.227Z,13.00
2019-03-04T13:10:23.922Z,13.30
2019-03-04T13:12:52.355Z,12.90
2019-03-04T13:15:28.954Z,12.70
2019-03-04T13:17:57.762Z,12.50
2019-03-04T13:20:27.516Z,12.30
2019-03-04T13:22:56.196Z,12.10
2019-03-04T13:25:24.656Z,11.70
2019-03-04T13:27:53.081Z,10.60
2019-03-04T13:30:29.081Z,9.20
2019-03-04T13:32:57.524Z,8.20
2019-03-04T13:35:34.854Z,7.60
2019-03-04T13:38:03.286Z,7.30
2019-03-04T13:40:32.209Z,7.00
2019-03-04T13:43:00.769Z,6.70
2019-03-04T13:45:29.695Z,6.50
2019-03-04T13:47:58.133Z,6.50
2019-03-04T13:50:34.014Z,6.40
2019-03-04T13:53:02.699Z,6.40
2019-03-04T13:55:31.379Z,6.40
2019-03-04T13:58:00.064Z,6.50
2019-03-04T14:00:42.783Z,6.60
2019-03-04T14:03:13.621Z,6.70
2019-03-04T14:05:42.305Z,7.00
2019-03-04T14:08:10.867Z,7.20
2019-03-04T14:10:44.229Z,7.30
2019-03-04T14:13:12.910Z,7.30
2019-03-04T14:15:45.790Z,7.40
2019-03-04T14:18:14.360Z,7.40
2019-03-04T14:20:42.916Z,7.40
2019-03-04T14:23:11.375Z,7.30
2019-03-04T14:25:40.156Z,7.30
2019-03-04T14:28:08.600Z,7.30
2019-03-04T14:30:37.283Z,7.40
2019-03-04T14:33:06.447Z,7.30
2019-03-04T14:35:35.123Z,7.40
2019-03-04T14:38:03.814Z,7.50
2019-03-04T14:40:32.499Z,7.50
2019-03-04T14:43:01.291Z,7.60
2019-03-04T14:45:29.971Z,7.70
2019-03-04T14:47:59.135Z,7.80
2019-03-04T14:50:28.509Z,7.90
2019-03-04T14:52:58.535Z,7.90
2019-03-04T14:55:32.858Z,8.00
2019-03-04T14:58:02.203Z,8.20
2019-03-04T15:00:40.061Z,8.20
2019-03-04T15:03:18.806Z,8.20
2019-03-04T15:05:38.986Z,8.10
2019-03-04T15:08:07.911Z,8.10
2019-03-04T15:10:36.713Z,8.10
2019-03-04T15:13:05.509Z,8.10
2019-03-04T15:15:35.036Z,8.10
2019-03-04T15:18:03.491Z,8.10
2019-03-04T15:20:33.594Z,8.20
2019-03-04T15:23:02.395Z,8.30
2019-03-04T15:25:32.040Z,8.20
2019-03-04T15:28:09.722Z,8.30
2019-03-04T15:30:38.281Z,8.30
2019-03-04T15:33:14.680Z,8.40
2019-03-04T15:35:37.450Z,8.30
2019-03-04T15:38:06.492Z,8.20
2019-03-04T15:40:35.046Z,8.20
2019-03-04T15:43:04.098Z,8.30
2019-03-04T15:45:33.715Z,8.50
2019-03-04T15:48:02.297Z,8.70
2019-03-04T15:50:31.095Z,9.10
2019-03-04T15:52:59.656Z,9.40
2019-03-04T15:55:28.870Z,9.60
2019-03-04T15:57:57.619Z,10.00
2019-03-04T16:00:26.423Z,10.80
2019-03-04T16:02:55.107Z,11.40
2019-03-04T16:05:23.667Z,12.90
2019-03-04T16:07:52.223Z,14.00
2019-03-04T16:10:31.349Z,14.00
2019-03-04T16:13:00.271Z,13.20
2019-03-04T16:15:28.708Z,12.20
2019-03-04T16:17:57.280Z,11.40
2019-03-04T16:20:25.960Z,10.70
2019-03-04T16:22:55.833Z,10.30
2019-03-04T16:25:24.878Z,10.00
2019-03-04T16:28:02.195Z,9.70
2019-03-04T16:30:30.761Z,9.50
2019-03-04T16:32:59.199Z,9.40
2019-03-04T16:35:27.759Z,9.40
2019-03-04T16:37:56.378Z,9.30
2019-03-04T16:40:25.970Z,9.20
2019-03-04T16:42:54.652Z,9.20
2019-03-04T16:45:23.939Z,9.20
2019-03-04T16:47:52.978Z,9.20
2019-03-04T16:50:24.899Z,9.20
2019-03-04T16:52:59.344Z,9.30
2019-03-04T16:55:27.775Z,9.20
2019-03-04T16:57:56.454Z,9.00
2019-03-04T17:00:25.024Z,8.80
2019-03-04T17:02:53.464Z,8.80
2019-03-04T17:05:22.261Z,8.80
2019-03-04T17:07:51.097Z,8.70
2019-03-04T17:10:24.548Z,8.60
2019-03-04T17:12:54.479Z,8.60
2019-03-04T17:15:24.187Z,8.60
2019-03-04T17:17:53.230Z,8.50
2019-03-04T17:20:21.907Z,8.50
2019-03-04T17:22:50.359Z,8.40
2019-03-04T17:25:21.483Z,8.30
2019-03-04T17:27:50.475Z,8.30
2019-03-04T17:30:20.356Z,8.20
2019-03-04T17:32:48.797Z,8.20
2019-03-04T17:35:18.919Z,8.10
2019-03-04T17:37:47.839Z,8.10
2019-03-04T17:40:18.687Z,8.10
2019-03-04T17:42:47.483Z,8.10
2019-03-04T17:45:21.328Z,8.10
2019-03-04T17:47:50.127Z,8.00
2019-03-04T17:50:32.970Z,8.00
2019-03-04T17:53:02.252Z,8.00
2019-03-04T17:55:31.183Z,8.00
2019-03-04T17:57:59.734Z,8.00
2019-03-04T18:00:30.816Z,8.00
2019-03-04T18:02:59.497Z,8.00
2019-03-04T18:05:28.185Z,8.00
2019-03-04T18:07:57.222Z,7.90
2019-03-04T18:10:26.141Z,7.90
2019-03-04T18:12:57.225Z,7.90
2019-03-04T18:15:27.706Z,7.90
2019-03-04T18:17:56.398Z,7.90
2019-03-04T18:20:34.034Z,8.00
2019-03-04T18:22:55.553Z,8.00
2019-03-04T18:25:27.593Z,8.00
2019-03-04T18:28:02.757Z,8.00
2019-03-04T18:30:50.994Z,8.00
2019-03-04T18:33:32.161Z,8.10
2019-03-04T18:36:29.519Z,8.10
2019-03-04T18:39:05.057Z,8.20
2019-03-04T18:42:10.211Z,8.20
2019-03-04T18:45:08.075Z,8.10
2019-03-04T18:47:45.965Z,8.00
2019-03-04T18:50:14.649Z,7.90
2019-03-04T18:52:43.577Z,7.80
2019-03-04T18:55:12.031Z,7.80
2019-03-04T18:57:41.056Z,7.70
2019-03-04T19:00:12.860Z,7.70
2019-03-04T19:02:41.539Z,7.70
2019-03-04T19:05:11.420Z,7.70
2019-03-04T19:07:39.878Z,7.70
2019-03-04T19:10:11.185Z,7.60
2019-03-04T19:12:39.623Z,7.60
2019-03-04T19:15:11.664Z,7.60
2019-03-04T19:17:40.345Z,7.60
2019-03-04T19:20:14.588Z,7.60
2019-03-04T19:22:43.711Z,7.70
2019-03-04T19:25:12.510Z,7.60
2019-03-04T19:27:41.557Z,7.70
2019-03-04T19:30:16.477Z,7.70
2019-03-04T19:32:45.394Z,7.70
2019-03-04T19:35:15.276Z,7.70
2019-03-04T19:37:44.082Z,7.60
2019-03-04T19:40:17.089Z,7.60
2019-03-04T19:42:45.522Z,7.60
2019-03-04T19:45:16.605Z,7.60
2019-03-04T19:47:45.291Z,7.60
2019-03-04T19:50:13.967Z,7.60
2019-03-04T19:52:42.767Z,7.50
2019-03-04T19:55:13.251Z,7.40
2019-03-04T19:57:42.412Z,7.40
2019-03-04T20:00:24.855Z,7.40
2019-03-04T20:02:53.832Z,7.40
2019-03-04T20:05:23.121Z,7.40
2019-03-04T20:07:51.776Z,7.40
2019-03-04T20:10:20.584Z,7.40
2019-03-04T20:12:49.260Z,7.40
2019-03-04T20:15:28.381Z,7.50
2019-03-04T20:17:57.063Z,7.50
2019-03-04T20:20:25.865Z,7.50
2019-03-04T20:22:54.908Z,7.60
2019-03-04T20:25:24.791Z,7.60
2019-03-04T20:27:53.473Z,7.60
2019-03-04T20:30:25.596Z,7.50
2019-03-04T20:32:54.554Z,7.60
2019-03-04T20:35:23.119Z,7.60
2019-03-04T20:38:04.401Z,7.60
2019-03-04T20:40:33.437Z,7.60
2019-03-04T20:43:02.000Z,7.60
2019-03-04T20:45:30.801Z,7.60
2019-03-04T20:47:59.602Z,7.50
2019-03-04T20:50:28.535Z,7.40
2019-03-04T20:52:57.566Z,7.40
2019-03-04T20:55:26.144Z,7.40
2019-03-04T20:57:54.813Z,7.40
2019-03-04T21:00:26.969Z,7.30
2019-03-04T21:02:55.894Z,7.30
2019-03-04T21:05:25.826Z,7.20
2019-03-04T21:07:54.697Z,7.20
2019-03-04T21:10:23.379Z,7.20
2019-03-04T21:12:52.661Z,7.10
2019-03-04T21:15:21.580Z,7.10
2019-03-04T21:17:50.144Z,7.10
2019-03-04T21:20:19.433Z,7.00
2019-03-04T21:22:48.347Z,7.00
2019-03-04T21:25:38.027Z,7.00
2019-03-04T21:28:37.311Z,7.00
2019-03-04T21:31:33.471Z,6.90
2019-03-04T21:34:11.610Z,6.90
2019-03-04T21:37:01.327Z,6.90
2019-03-04T21:39:51.118Z,6.80
2019-03-04T21:42:22.805Z,6.80
2019-03-04T21:45:01.576Z,6.80
2019-03-04T21:47:36.127Z,6.70
2019-03-04T21:50:08.181Z,6.80
2019-03-04T21:52:39.969Z,6.70
2019-03-04T21:55:14.892Z,6.70
2019-03-04T21:57:46.466Z,6.80
2019-03-04T22:00:18.007Z,6.70
2019-03-04T22:02:50.169Z,6.70
2019-03-04T22:05:19.337Z,6.80
2019-03-04T22:07:48.136Z,6.80
2019-03-04T22:10:17.053Z,6.70
2019-03-04T22:12:45.856Z,6.80
2019-03-04T22:15:14.668Z,6.80
2019-03-04T22:17:45.021Z,6.80
2019-03-04T22:20:15.861Z,6.80
2019-03-04T22:22:44.553Z,6.80
2019-03-04T22:25:14.218Z,6.80
2019-03-04T22:27:42.989Z,6.80
2019-03-04T22:30:14.311Z,6.80
2019-03-04T22:32:43.231Z,6.80
2019-03-04T22:35:13.988Z,6.80
2019-03-04T22:37:42.515Z,6.70
2019-03-04T22:40:14.213Z,6.70
2019-03-04T22:42:42.414Z,6.80
2019-03-04T22:45:13.965Z,6.80
2019-03-04T22:47:42.896Z,6.80
2019-03-04T22:50:13.722Z,6.80
2019-03-04T22:52:42.645Z,6.80
2019-03-04T22:55:14.097Z,6.80
2019-03-04T22:57:43.006Z,6.80
2019-03-04T23:00:54.314Z,6.70
2019-03-04T23:03:24.288Z,6.70
2019-03-04T23:05:56.214Z,6.70
2019-03-04T23:08:25.022Z,6.70
2019-03-04T23:10:53.814Z,6.70
2019-03-04T23:13:31.742Z,6.70
2019-03-04T23:16:01.625Z,6.70
2019-03-04T23:18:30.547Z,6.60
2019-03-04T23:20:59.345Z,6.60
2019-03-04T23:23:28.024Z,6.60
2019-03-04T23:25:56.947Z,6.60
2019-03-04T23:28:25.748Z,6.60
2019-03-04T23:30:54.198Z,6.60
2019-03-04T23:33:23.114Z,6.50
2019-03-04T23:35:51.910Z,6.50
2019-03-04T23:38:20.360Z,6.50
2019-03-04T23:40:48.798Z,6.50
2019-03-04T23:43:17.717Z,6.50
2019-03-04T23:45:46.400Z,6.50
2019-03-04T23:48:15.083Z,6.50
2019-03-04T23:50:43.768Z,6.60
2019-03-04T23:53:12.442Z,6.60
2019-03-04T23:55:41.127Z,6.60
2019-03-04T23:58:09.685Z,6.60
